createdAt,value
2023-02-08T00:01:55.038Z,3.00
2023-02-08T00:04:22.647Z,4.85
2023-02-08T00:06:50.472Z,5.38
2023-02-08T00:09:19.392Z,3.50
2023-02-08T00:11:46.979Z,2.38
2023-02-08T00:14:14.569Z,6.13
2023-02-08T00:16:42.140Z,5.30
2023-02-08T00:19:09.709Z,5.45
2023-02-08T00:21:37.285Z,4.88
2023-02-08T00:24:05.084Z,4.28
2023-02-08T00:26:34.052Z,3.55
2023-02-08T00:29:01.668Z,4.63
2023-02-08T00:31:29.373Z,6.05
2023-02-08T00:33:57.174Z,4.88
2023-02-08T00:36:26.535Z,5.50
2023-02-08T00:38:54.155Z,7.60
2023-02-08T00:41:22.370Z,5.25
2023-02-08T00:43:51.290Z,3.45
2023-02-08T00:46:18.903Z,3.05
2023-02-08T00:48:46.493Z,3.92
2023-02-08T00:51:15.280Z,5.72
2023-02-08T00:53:43.839Z,7.13
2023-02-08T00:56:11.800Z,5.03
2023-02-08T00:58:39.687Z,3.42
2023-02-08T01:01:08.740Z,5.47
2023-02-08T01:03:37.343Z,5.45
2023-02-08T01:06:05.898Z,3.63
2023-02-08T01:08:33.685Z,3.63
2023-02-08T01:11:05.171Z,5.80
2023-02-08T01:13:32.719Z,4.55
2023-02-08T01:16:08.008Z,2.83
2023-02-08T01:18:35.637Z,5.15
2023-02-08T01:21:07.182Z,5.95
2023-02-08T01:23:34.769Z,4.47
2023-02-08T01:26:03.813Z,7.38
2023-02-08T01:28:31.455Z,4.85
2023-02-08T01:30:59.282Z,7.20
2023-02-08T01:33:28.299Z,5.40
2023-02-08T01:35:55.868Z,3.67
2023-02-08T01:38:23.464Z,3.17
2023-02-08T01:40:52.129Z,4.43
2023-02-08T01:43:26.014Z,5.13
2023-02-08T01:45:53.712Z,6.63
2023-02-08T01:48:22.800Z,2.58
2023-02-08T01:50:53.472Z,5.05
2023-02-08T01:53:21.210Z,3.60
2023-02-08T01:55:49.925Z,6.07
2023-02-08T01:58:18.349Z,3.75
2023-02-08T02:00:46.572Z,6.32
2023-02-08T02:03:14.291Z,3.30
2023-02-08T02:05:43.306Z,4.10
2023-02-08T02:08:12.791Z,4.38
2023-02-08T02:10:41.711Z,3.47
2023-02-08T02:13:11.685Z,3.03
2023-02-08T02:15:44.105Z,5.68
2023-02-08T02:18:11.980Z,5.53
2023-02-08T02:20:49.496Z,3.95
2023-02-08T02:23:36.463Z,4.05
2023-02-08T02:26:29.405Z,6.68
2023-02-08T02:29:16.758Z,6.70
2023-02-08T02:32:14.492Z,4.65
2023-02-08T02:34:46.192Z,4.40
2023-02-08T02:37:20.501Z,3.70
2023-02-08T02:39:51.101Z,2.25
2023-02-08T02:42:40.810Z,2.33
2023-02-08T02:45:11.354Z,3.05
2023-02-08T02:47:42.490Z,4.28
2023-02-08T02:50:16.992Z,4.72
2023-02-08T02:52:48.231Z,5.97
2023-02-08T02:55:17.508Z,3.95
2023-02-08T02:57:46.054Z,5.38
2023-02-08T03:00:18.837Z,8.95
2023-02-08T03:02:46.457Z,3.33
2023-02-08T03:05:15.371Z,2.65
2023-02-08T03:07:52.966Z,3.25
2023-02-08T03:10:26.758Z,5.35
2023-02-08T03:12:59.664Z,4.07
2023-02-08T03:15:30.861Z,2.60
2023-02-08T03:18:04.133Z,4.20
2023-02-08T03:20:34.546Z,3.30
2023-02-08T03:23:03.659Z,4.65
2023-02-08T03:25:35.679Z,2.88
2023-02-08T03:28:06.834Z,3.53
2023-02-08T03:30:38.907Z,3.53
2023-02-08T03:33:10.006Z,4.70
2023-02-08T03:35:41.371Z,4.82
2023-02-08T03:38:11.083Z,4.97
2023-02-08T03:40:39.838Z,3.92
2023-02-08T03:43:10.039Z,3.55
2023-02-08T03:45:39.983Z,3.13
2023-02-08T03:48:09.865Z,5.32
2023-02-08T03:50:40.393Z,5.40
2023-02-08T03:53:09.229Z,4.07
2023-02-08T03:55:38.371Z,5.93
2023-02-08T03:58:07.665Z,3.80
2023-02-08T04:00:37.382Z,4.35
2023-02-08T04:03:07.858Z,4.82
2023-02-08T04:05:35.764Z,5.45
2023-02-08T04:08:04.895Z,4.13
2023-02-08T04:10:32.518Z,6.45
2023-02-08T04:13:00.279Z,4.35
2023-02-08T04:15:28.125Z,4.50
2023-02-08T04:17:55.722Z,3.58
2023-02-08T04:20:23.325Z,5.78
2023-02-08T04:22:50.902Z,4.28
2023-02-08T04:25:19.922Z,3.85
2023-02-08T04:27:47.590Z,5.25
2023-02-08T04:30:15.235Z,4.18
2023-02-08T04:32:42.867Z,6.85
2023-02-08T04:35:10.419Z,2.95
2023-02-08T04:37:38.018Z,3.33
2023-02-08T04:40:05.733Z,4.93
2023-02-08T04:42:34.663Z,4.60
2023-02-08T04:45:02.224Z,2.97
2023-02-08T04:47:29.804Z,4.57
2023-02-08T04:49:57.381Z,4.00
2023-02-08T04:52:25.001Z,5.95
2023-02-08T04:54:52.562Z,4.03
2023-02-08T04:57:20.149Z,5.75
2023-02-08T04:59:49.113Z,5.35
2023-02-08T05:02:16.707Z,3.25
2023-02-08T05:04:44.295Z,5.82
2023-02-08T05:07:11.915Z,3.45
2023-02-08T05:09:39.510Z,5.53
2023-02-08T05:12:07.176Z,3.80
2023-02-08T05:14:34.771Z,6.28
2023-02-08T05:17:03.840Z,7.68
2023-02-08T05:19:31.563Z,2.75
2023-02-08T05:21:59.155Z,6.03
2023-02-08T05:24:26.727Z,4.40
2023-02-08T05:26:54.257Z,3.85
2023-02-08T05:29:21.805Z,4.85
2023-02-08T05:31:49.502Z,4.50
2023-02-08T05:34:18.510Z,4.85
2023-02-08T05:36:46.096Z,4.05
2023-02-08T05:39:13.663Z,6.65
2023-02-08T05:41:41.243Z,4.72
2023-02-08T05:44:08.832Z,3.63
2023-02-08T05:46:38.191Z,5.45
2023-02-08T05:49:06.070Z,3.55
2023-02-08T05:51:34.969Z,4.55
2023-02-08T05:54:02.545Z,3.50
2023-02-08T05:56:30.051Z,7.32
2023-02-08T05:58:57.632Z,5.15
2023-02-08T06:01:25.213Z,5.60
2023-02-08T06:03:52.826Z,5.85
2023-02-08T06:06:20.433Z,5.20
2023-02-08T06:08:49.286Z,6.68
2023-02-08T06:11:16.988Z,4.65
2023-02-08T06:13:44.515Z,5.28
2023-02-08T06:16:12.069Z,4.90
2023-02-08T06:18:39.648Z,3.08
2023-02-08T06:21:07.243Z,3.58
2023-02-08T06:23:34.842Z,7.20
2023-02-08T06:26:03.790Z,5.38
2023-02-08T06:28:31.465Z,3.80
2023-02-08T06:30:59.207Z,3.83
2023-02-08T06:33:26.832Z,7.85
2023-02-08T06:35:54.703Z,6.68
2023-02-08T06:38:22.784Z,9.90
2023-02-08T06:40:50.690Z,9.15
2023-02-08T06:43:20.224Z,9.90
2023-02-08T06:45:48.326Z,8.07
2023-02-08T06:48:16.202Z,11.85
2023-02-08T06:50:44.177Z,8.85
2023-02-08T06:53:11.893Z,10.90
2023-02-08T06:55:39.755Z,11.65
2023-02-08T06:58:07.334Z,10.15
2023-02-08T07:00:36.270Z,14.88
2023-02-08T07:03:03.944Z,9.23
2023-02-08T07:05:31.564Z,11.40
2023-02-08T07:07:59.183Z,10.77
2023-02-08T07:10:26.764Z,11.52
2023-02-08T07:12:54.365Z,12.32
2023-02-08T07:15:21.977Z,10.52
2023-02-08T07:17:50.950Z,12.73
2023-02-08T07:20:18.564Z,11.25
2023-02-08T07:22:46.129Z,12.82
2023-02-08T07:25:13.687Z,10.23
2023-02-08T07:27:41.273Z,11.30
2023-02-08T07:30:09.500Z,11.75
2023-02-08T07:32:37.097Z,11.57
2023-02-08T07:35:06.254Z,10.75
2023-02-08T07:37:33.962Z,12.45
2023-02-08T07:40:01.584Z,11.88
2023-02-08T07:42:29.175Z,10.93
2023-02-08T07:45:10.061Z,10.60
2023-02-08T07:47:37.668Z,11.77
2023-02-08T07:50:06.995Z,10.95
2023-02-08T07:52:34.559Z,13.05
2023-02-08T07:55:02.126Z,9.75
2023-02-08T07:57:29.747Z,12.13
2023-02-08T07:59:57.310Z,9.90
2023-02-08T08:02:24.960Z,10.02
2023-02-08T08:04:54.105Z,10.98
2023-02-08T08:07:23.027Z,10.20
2023-02-08T08:09:50.675Z,9.73
2023-02-08T08:12:18.219Z,10.10
2023-02-08T08:14:45.803Z,13.68
2023-02-08T08:17:13.391Z,10.82
2023-02-08T08:19:40.956Z,9.25
2023-02-08T08:22:08.523Z,10.10
2023-02-08T08:24:37.473Z,10.48
2023-02-08T08:27:05.590Z,13.20
2023-02-08T08:29:33.249Z,10.25
2023-02-08T08:32:00.842Z,5.55
2023-02-08T08:34:30.597Z,9.50
2023-02-08T08:36:58.146Z,6.18
2023-02-08T08:39:27.218Z,8.35
2023-02-08T08:41:57.935Z,2.55
2023-02-08T08:44:25.569Z,5.13
2023-02-08T08:46:55.491Z,5.60
2023-02-08T08:49:23.288Z,6.15
2023-02-08T08:51:51.370Z,6.93
2023-02-08T08:54:19.027Z,9.70
2023-02-08T08:56:46.626Z,3.78
2023-02-08T08:59:15.769Z,5.25
2023-02-08T09:01:43.401Z,5.40
2023-02-08T09:04:11.221Z,5.82
2023-02-08T09:06:39.167Z,6.75
2023-02-08T09:09:07.188Z,6.75
2023-02-08T09:11:34.999Z,5.97
2023-02-08T09:14:04.396Z,6.38
2023-02-08T09:16:33.715Z,6.13
2023-02-08T09:19:01.718Z,6.55
2023-02-08T09:21:29.498Z,4.15
2023-02-08T09:23:57.138Z,6.43
2023-02-08T09:26:26.509Z,7.35
2023-02-08T09:28:54.089Z,8.55
2023-02-08T09:31:23.306Z,3.70
2023-02-08T09:33:53.058Z,4.22
2023-02-08T09:36:21.361Z,4.47
2023-02-08T09:38:50.033Z,4.65
2023-02-08T09:41:26.092Z,5.95
2023-02-08T09:43:57.527Z,4.18
2023-02-08T09:46:27.323Z,4.63
2023-02-08T09:48:57.351Z,6.03
2023-02-08T09:51:27.413Z,4.03
2023-02-08T09:53:57.100Z,7.72
2023-02-08T09:56:27.580Z,4.80
2023-02-08T09:58:55.848Z,5.10
2023-02-08T10:01:24.868Z,5.60
2023-02-08T10:03:54.453Z,4.95
2023-02-08T10:06:23.397Z,7.72
2023-02-08T10:08:52.038Z,3.17
2023-02-08T10:11:37.498Z,2.78
2023-02-08T10:14:14.929Z,3.40
2023-02-08T10:16:50.582Z,4.78
2023-02-08T10:19:25.380Z,4.63
2023-02-08T10:22:00.958Z,5.22
2023-02-08T10:24:36.669Z,4.07
2023-02-08T10:27:09.725Z,2.92
2023-02-08T10:29:46.625Z,3.65
2023-02-08T10:32:20.601Z,8.25
2023-02-08T10:34:50.412Z,4.40
2023-02-08T10:37:20.336Z,5.53
2023-02-08T10:39:47.928Z,6.05
2023-02-08T10:42:17.405Z,2.83
2023-02-08T10:44:52.394Z,3.50
2023-02-08T10:47:24.067Z,2.85
2023-02-08T10:49:54.601Z,8.70
2023-02-08T10:52:23.594Z,2.53
2023-02-08T10:54:51.158Z,5.53
2023-02-08T10:57:20.279Z,4.18
2023-02-08T10:59:50.261Z,2.95
2023-02-08T11:02:22.834Z,4.05
2023-02-08T11:04:59.062Z,3.35
2023-02-08T11:07:28.005Z,3.20
2023-02-08T11:09:55.572Z,2.40
2023-02-08T11:12:24.011Z,2.20
2023-02-08T11:14:52.710Z,2.30
2023-02-08T11:17:25.813Z,4.75
2023-02-08T11:19:53.586Z,2.58
2023-02-08T11:22:22.856Z,5.75
2023-02-08T11:24:57.431Z,4.55
2023-02-08T11:27:32.390Z,3.78
2023-02-08T11:30:18.769Z,2.72
2023-02-08T11:32:47.124Z,5.03
2023-02-08T11:35:21.688Z,2.97
2023-02-08T11:37:49.945Z,3.53
2023-02-08T11:40:20.277Z,3.83
2023-02-08T11:42:48.097Z,4.55
2023-02-08T11:45:20.209Z,2.53
2023-02-08T11:47:48.457Z,2.20
2023-02-08T11:50:24.753Z,3.13
2023-02-08T11:52:54.940Z,2.95
2023-02-08T11:55:26.001Z,3.15
2023-02-08T11:57:54.777Z,3.72
2023-02-08T12:00:23.277Z,3.53
2023-02-08T12:02:51.559Z,4.03
2023-02-08T12:05:22.197Z,4.65
2023-02-08T12:08:00.652Z,3.55
2023-02-08T12:10:43.091Z,3.55
2023-02-08T12:13:25.532Z,3.15
2023-02-08T12:16:01.565Z,2.00
2023-02-08T12:18:53.530Z,2.67
2023-02-08T12:21:22.960Z,2.08
2023-02-08T12:23:52.337Z,3.42
2023-02-08T12:26:23.382Z,4.30
2023-02-08T12:29:03.041Z,3.25
2023-02-08T12:31:38.899Z,3.15
2023-02-08T12:34:11.521Z,2.40
2023-02-08T12:37:10.948Z,1.98
2023-02-08T12:40:00.398Z,4.57
2023-02-08T12:42:32.847Z,4.38
2023-02-08T12:45:06.579Z,2.53
2023-02-08T12:47:47.001Z,1.65
2023-02-08T12:50:24.442Z,2.13
2023-02-08T12:52:55.534Z,6.53
2023-02-08T12:55:25.743Z,2.22
2023-02-08T12:57:54.583Z,4.88
2023-02-08T13:00:23.822Z,1.98
2023-02-08T13:02:57.678Z,4.80
2023-02-08T13:05:27.904Z,1.80
2023-02-08T13:07:59.446Z,1.77
2023-02-08T13:10:28.220Z,2.42
2023-02-08T13:12:58.109Z,4.18
2023-02-08T13:15:31.277Z,3.35
2023-02-08T13:18:02.771Z,2.38
2023-02-08T13:20:34.446Z,2.03
2023-02-08T13:23:04.669Z,2.83
2023-02-08T13:25:33.518Z,1.50
2023-02-08T13:28:02.032Z,2.20
2023-02-08T13:30:30.016Z,1.67
2023-02-08T13:32:58.286Z,1.25
2023-02-08T13:35:28.607Z,1.83
2023-02-08T13:37:59.877Z,3.88
2023-02-08T13:40:29.165Z,1.10
2023-02-08T13:42:59.424Z,1.85
2023-02-08T13:45:29.841Z,1.60
2023-02-08T13:47:58.533Z,1.80
2023-02-08T13:50:43.992Z,2.05
2023-02-08T13:53:14.536Z,1.35
2023-02-08T13:55:45.819Z,1.38
2023-02-08T13:58:31.951Z,0.70
2023-02-08T14:01:04.923Z,2.63
2023-02-08T14:03:33.229Z,2.00
2023-02-08T14:06:01.635Z,0.82
2023-02-08T14:08:31.654Z,2.20
2023-02-08T14:11:04.963Z,3.63
2023-02-08T14:13:33.615Z,3.30
2023-02-08T14:16:20.129Z,1.55
2023-02-08T14:18:52.618Z,0.70
2023-02-08T14:21:26.552Z,3.28
2023-02-08T14:24:01.778Z,2.40
2023-02-08T14:26:29.794Z,1.23
2023-02-08T14:28:58.648Z,1.38
2023-02-08T14:31:36.943Z,2.10
2023-02-08T14:34:04.594Z,1.83
2023-02-08T14:36:34.041Z,2.25
2023-02-08T14:39:10.264Z,1.55
2023-02-08T14:41:54.416Z,2.15
2023-02-08T14:44:55.491Z,2.05
2023-02-08T14:47:42.582Z,2.05
2023-02-08T14:50:16.844Z,4.65
2023-02-08T14:52:47.908Z,0.80
2023-02-08T14:55:17.405Z,1.35
2023-02-08T14:57:46.595Z,1.05
2023-02-08T15:00:19.744Z,1.17
2023-02-08T15:02:47.511Z,0.93
2023-02-08T15:05:21.349Z,1.38
2023-02-08T15:07:52.057Z,0.80
2023-02-08T15:10:21.719Z,2.22
2023-02-08T15:12:52.222Z,1.10
2023-02-08T15:15:26.997Z,1.63
2023-02-08T15:17:55.800Z,2.78
2023-02-08T15:20:25.166Z,1.30
2023-02-08T15:22:59.142Z,1.85
2023-02-08T15:25:27.686Z,2.63
2023-02-08T15:27:57.801Z,1.17
2023-02-08T15:30:29.912Z,0.70
2023-02-08T15:32:57.768Z,1.48
2023-02-08T15:35:25.915Z,0.63
2023-02-08T15:37:53.866Z,2.90
2023-02-08T15:40:23.214Z,1.27
2023-02-08T15:42:50.834Z,0.98
2023-02-08T15:45:25.050Z,1.17
2023-02-08T15:47:53.297Z,0.85
2023-02-08T15:50:22.652Z,1.20
2023-02-08T15:52:52.396Z,3.00
2023-02-08T15:55:19.989Z,1.33
2023-02-08T15:57:49.376Z,0.70
2023-02-08T16:00:18.088Z,1.33
2023-02-08T16:02:51.165Z,1.67
2023-02-08T16:05:20.426Z,1.05
2023-02-08T16:07:48.233Z,1.38
2023-02-08T16:10:23.550Z,1.30
2023-02-08T16:12:52.405Z,1.52
2023-02-08T16:15:36.151Z,1.13
2023-02-08T16:18:05.510Z,1.30
2023-02-08T16:20:34.658Z,2.40
2023-02-08T16:23:02.868Z,0.70
2023-02-08T16:25:35.155Z,1.58
2023-02-08T16:28:04.074Z,0.80
2023-02-08T16:30:31.836Z,1.15
2023-02-08T16:33:06.264Z,0.93
2023-02-08T16:35:38.503Z,2.10
2023-02-08T16:38:09.958Z,2.58
2023-02-08T16:40:43.262Z,0.95
2023-02-08T16:43:16.854Z,0.80
2023-02-08T16:45:44.478Z,1.70
2023-02-08T16:48:28.730Z,3.03
2023-02-08T16:50:57.790Z,1.33
2023-02-08T16:53:40.253Z,0.80
2023-02-08T16:56:10.121Z,0.85
2023-02-08T16:58:37.934Z,1.55
2023-02-08T17:01:05.877Z,1.08
2023-02-08T17:03:33.624Z,3.05
2023-02-08T17:06:02.664Z,0.93
2023-02-08T17:08:30.272Z,1.50
2023-02-08T17:10:59.015Z,1.08
2023-02-08T17:13:27.629Z,1.17
2023-02-08T17:15:55.567Z,1.38
2023-02-08T17:18:23.426Z,0.77
2023-02-08T17:20:57.570Z,2.45
2023-02-08T17:23:26.584Z,1.45
2023-02-08T17:25:54.394Z,2.10
2023-02-08T17:28:22.115Z,1.73
2023-02-08T17:30:50.366Z,1.27
2023-02-08T17:33:20.828Z,3.38
2023-02-08T17:35:49.518Z,0.98
2023-02-08T17:38:17.725Z,1.33
2023-02-08T17:40:46.740Z,1.05
2023-02-08T17:43:14.319Z,2.00
2023-02-08T17:45:42.961Z,1.65
2023-02-08T17:48:13.226Z,1.85
2023-02-08T17:50:42.135Z,1.13
2023-02-08T17:53:09.860Z,1.58
2023-02-08T17:55:37.471Z,1.17
2023-02-08T17:58:06.394Z,2.92
2023-02-08T18:00:34.693Z,5.47
2023-02-08T18:03:03.042Z,0.95
2023-02-08T18:05:30.788Z,1.42
2023-02-08T18:07:58.550Z,0.90
2023-02-08T18:10:26.349Z,1.27
2023-02-08T18:12:53.927Z,2.60
2023-02-08T18:15:24.075Z,2.50
2023-02-08T18:17:51.770Z,1.17
2023-02-08T18:20:19.439Z,0.90
2023-02-08T18:22:47.059Z,1.73
2023-02-08T18:25:16.027Z,3.28
2023-02-08T18:27:43.639Z,1.60
2023-02-08T18:30:11.986Z,2.38
2023-02-08T18:32:40.915Z,2.25
2023-02-08T18:35:09.180Z,2.33
2023-02-08T18:37:37.007Z,1.90
2023-02-08T18:40:05.145Z,2.25
2023-02-08T18:42:34.073Z,1.58
2023-02-08T18:45:02.630Z,1.35
2023-02-08T18:47:30.189Z,1.48
2023-02-08T18:49:59.091Z,2.40
2023-02-08T18:52:26.632Z,2.17
2023-02-08T18:54:54.197Z,1.95
2023-02-08T18:57:21.749Z,1.70
2023-02-08T18:59:49.333Z,3.72
2023-02-08T19:02:18.496Z,4.35
2023-02-08T19:04:46.126Z,1.25
2023-02-08T19:07:15.049Z,2.83
2023-02-08T19:09:43.759Z,2.15
2023-02-08T19:12:15.267Z,2.58
2023-02-08T19:14:43.912Z,3.55
2023-02-08T19:17:14.422Z,2.22
2023-02-08T19:19:42.460Z,2.08
2023-02-08T19:22:10.071Z,1.58
2023-02-08T19:24:40.012Z,3.00
2023-02-08T19:27:07.615Z,2.90
2023-02-08T19:29:35.219Z,4.45
2023-02-08T19:32:02.875Z,2.70
2023-02-08T19:34:30.523Z,2.05
2023-02-08T19:36:58.172Z,2.15
2023-02-08T19:39:27.235Z,4.45
2023-02-08T19:41:58.513Z,4.07
2023-02-08T19:44:29.084Z,6.50
2023-02-08T19:46:57.814Z,3.42
2023-02-08T19:49:27.271Z,3.35
2023-02-08T19:51:55.130Z,2.20
2023-02-08T19:54:22.718Z,1.95
2023-02-08T19:56:52.170Z,3.17
2023-02-08T19:59:22.144Z,3.55
2023-02-08T20:01:49.791Z,2.85
2023-02-08T20:04:17.419Z,4.50
2023-02-08T20:06:45.527Z,5.03
2023-02-08T20:09:13.789Z,3.72
2023-02-08T20:11:54.994Z,2.03
2023-02-08T20:14:25.673Z,3.50
2023-02-08T20:16:53.351Z,2.80
2023-02-08T20:19:20.930Z,6.00
2023-02-08T20:21:48.528Z,3.03
2023-02-08T20:24:16.374Z,3.53
2023-02-08T20:26:45.080Z,4.60
2023-02-08T20:29:13.194Z,4.78
2023-02-08T20:31:43.329Z,4.47
2023-02-08T20:34:14.274Z,3.70
2023-02-08T20:36:49.744Z,3.63
2023-02-08T20:39:22.567Z,5.15
2023-02-08T20:41:50.193Z,3.60
2023-02-08T20:44:18.658Z,3.00
2023-02-08T20:46:47.634Z,3.78
2023-02-08T20:49:21.392Z,5.40
2023-02-08T20:51:51.608Z,2.83
2023-02-08T20:54:19.717Z,3.13
2023-02-08T20:56:48.655Z,4.30
2023-02-08T20:59:16.688Z,9.27
2023-02-08T21:01:46.377Z,3.45
2023-02-08T21:04:17.024Z,5.13
2023-02-08T21:06:45.921Z,4.93
2023-02-08T21:09:14.536Z,6.32
2023-02-08T21:11:42.335Z,5.57
2023-02-08T21:14:10.757Z,3.33
2023-02-08T21:16:39.336Z,7.47
2023-02-08T21:19:06.940Z,5.75
2023-02-08T21:21:35.870Z,3.15
2023-02-08T21:24:03.432Z,5.25
2023-02-08T21:26:31.060Z,2.95
2023-02-08T21:29:00.299Z,3.80
2023-02-08T21:31:28.039Z,4.90
2023-02-08T21:33:55.670Z,3.97
2023-02-08T21:36:24.219Z,12.88
2023-02-08T21:38:53.183Z,3.50
2023-02-08T21:41:21.746Z,3.58
2023-02-08T21:43:49.998Z,5.03
2023-02-08T21:46:18.059Z,4.10
2023-02-08T21:49:03.532Z,9.30
2023-02-08T21:51:48.758Z,6.35
2023-02-08T21:54:36.128Z,4.65
2023-02-08T21:57:04.580Z,3.67
2023-02-08T21:59:35.217Z,4.85
2023-02-08T22:02:02.798Z,6.80
2023-02-08T22:04:30.366Z,4.20
2023-02-08T22:06:57.967Z,3.30
2023-02-08T22:09:28.550Z,3.92
2023-02-08T22:11:57.294Z,4.63
2023-02-08T22:14:24.887Z,5.63
2023-02-08T22:16:52.478Z,8.25
2023-02-08T22:19:20.059Z,6.45
2023-02-08T22:21:47.666Z,3.78
2023-02-08T22:24:15.249Z,3.60
2023-02-08T22:26:45.724Z,5.35
2023-02-08T22:29:13.300Z,6.78
2023-02-08T22:31:41.044Z,5.07
2023-02-08T22:34:08.742Z,3.95
2023-02-08T22:36:36.336Z,4.93
2023-02-08T22:39:03.980Z,4.50
2023-02-08T22:41:31.726Z,7.55
2023-02-08T22:44:00.690Z,7.05
2023-02-08T22:46:28.378Z,5.28
2023-02-08T22:48:56.199Z,6.50
2023-02-08T22:51:23.772Z,5.50
2023-02-08T22:53:51.352Z,5.63
2023-02-08T22:56:19.426Z,5.53
2023-02-08T22:58:47.076Z,5.47
2023-02-08T23:01:17.266Z,5.57
2023-02-08T23:03:45.050Z,5.00
2023-02-08T23:06:15.333Z,5.38
2023-02-08T23:08:42.952Z,6.47
2023-02-08T23:11:11.919Z,5.55
2023-02-08T23:13:39.502Z,3.88
2023-02-08T23:16:07.324Z,9.18
2023-02-08T23:18:37.335Z,5.97
2023-02-08T23:21:08.704Z,6.68
2023-02-08T23:23:36.625Z,5.80
2023-02-08T23:26:05.502Z,6.63
2023-02-08T23:28:33.132Z,4.20
2023-02-08T23:31:00.805Z,4.50
2023-02-08T23:33:28.416Z,6.47
2023-02-08T23:35:57.346Z,4.53
2023-02-08T23:38:24.921Z,4.05
2023-02-08T23:40:52.514Z,6.80
2023-02-08T23:43:20.085Z,4.18
2023-02-08T23:45:47.668Z,5.30
2023-02-08T23:48:15.266Z,8.30
2023-02-08T23:50:43.113Z,8.65
2023-02-08T23:53:12.204Z,7.95
2023-02-08T23:55:39.772Z,4.18
2023-02-08T23:58:07.360Z,5.57
